Time;durP1;ratioP1;P1;durP2;ratioP2;P2;SDS_P1;SDS_P2;PMS_P1;PMS_P2;Temp;Humidity;BMP_temperature;BMP_pressure;BME280_temperature;BME280_humidity;BME280_pressure;Samples;Min_cycle;Max_cycle;Signal;HPM_P1;HPM_P2
2022/12/18 00:01:05;;;;;;;108.38;36.90;;;-3.30;99.90;;;;;;5097695;28;20054;-78
2022/12/18 00:03:35;;;;;;;106.65;37.08;;;-3.30;99.90;;;;;;5071407;28;20044;-77
2022/12/18 00:06:02;;;;;;;99.88;34.05;;;-3.30;99.90;;;;;;5086314;28;20089;-77
2022/12/18 00:08:28;;;;;;;109.65;35.10;;;-2.80;99.90;;;;;;5072642;28;20048;-78
2022/12/18 00:10:54;;;;;;;102.15;35.60;;;-3.30;99.90;;;;;;5073072;28;20082;-78
2022/12/18 00:13:20;;;;;;;103.75;34.60;;;-3.20;99.90;;;;;;5060181;28;20114;-77
2022/12/18 00:15:46;;;;;;;114.18;35.63;;;-3.30;99.90;;;;;;5089527;28;20534;-77
2022/12/18 00:18:12;;;;;;;106.97;36.13;;;-3.30;99.90;;;;;;5058051;28;20040;-77
2022/12/18 00:20:39;;;;;;;101.85;33.22;;;-3.30;99.90;;;;;;5075970;28;20078;-77
2022/12/18 00:23:06;;;;;;;99.50;35.00;;;-3.30;99.90;;;;;;5096130;28;20804;-77
2022/12/18 00:25:34;;;;;;;109.85;35.97;;;-3.30;99.90;;;;;;5072707;28;20048;-77
2022/12/18 00:28:00;;;;;;;97.18;33.03;;;-2.30;99.90;;;;;;5072446;28;20043;-77
2022/12/18 00:30:26;;;;;;;105.45;35.38;;;-3.40;99.90;;;;;;5076633;28;20040;-77
2022/12/18 00:32:52;;;;;;;105.28;33.92;;;-3.40;99.90;;;;;;5076140;28;20044;-78
2022/12/18 00:35:18;;;;;;;102.47;35.90;;;-3.00;99.90;;;;;;5077697;28;20055;-77
2022/12/18 00:37:44;;;;;;;107.18;34.40;;;-3.40;99.90;;;;;;5082563;28;20946;-78
2022/12/18 00:40:10;;;;;;;101.28;34.25;;;-3.40;99.90;;;;;;5076830;28;20441;-78
2022/12/18 00:45:22;;;;;;;105.70;33.60;;;-3.50;99.90;;;;;;5091694;28;20052;-78
2022/12/18 00:47:48;;;;;;;103.03;35.00;;;-3.50;99.90;;;;;;5061103;28;20044;-79
2022/12/18 00:50:14;;;;;;;98.95;32.85;;;-3.50;99.90;;;;;;5081052;28;20050;-77
2022/12/18 00:52:40;;;;;;;102.07;32.65;;;-3.50;99.90;;;;;;5060619;28;20028;-78
2022/12/18 00:55:06;;;;;;;98.45;33.75;;;-3.50;99.90;;;;;;5093129;27;20191;-78
2022/12/18 00:57:32;;;;;;;95.78;34.00;;;-3.50;99.90;;;;;;5092301;28;20550;-77
2022/12/18 00:59:58;;;;;;;81.93;28.38;;;-3.50;99.90;;;;;;5096063;28;20130;-77
2022/12/18 01:02:23;;;;;;;97.82;32.17;;;-2.60;99.90;;;;;;5055946;28;20048;-78
2022/12/18 01:04:49;;;;;;;101.97;33.20;;;-3.60;99.90;;;;;;5081884;28;20067;-78
2022/12/18 01:07:15;;;;;;;86.18;31.38;;;-3.60;99.90;;;;;;5074106;28;20195;-78
2022/12/18 01:09:41;;;;;;;100.00;31.77;;;-2.90;99.90;;;;;;5078205;28;20044;-77
2022/12/18 01:12:06;;;;;;;93.22;31.40;;;-3.60;99.90;;;;;;5080425;28;20058;-78
2022/12/18 01:14:32;;;;;;;92.97;32.55;;;-3.60;99.90;;;;;;5081106;28;20040;-77
2022/12/18 01:16:58;;;;;;;98.38;32.30;;;-3.60;99.90;;;;;;5075897;28;20040;-77
2022/12/18 01:19:23;;;;;;;102.38;34.20;;;-3.60;99.90;;;;;;5070736;28;20048;-78
2022/12/18 01:21:49;;;;;;;99.05;32.58;;;-3.60;99.90;;;;;;5074694;28;20824;-78
2022/12/18 01:24:15;;;;;;;97.55;32.50;;;-3.60;99.90;;;;;;5082260;28;20142;-78
2022/12/18 01:26:41;;;;;;;88.70;32.22;;;-3.70;99.90;;;;;;5081105;27;20804;-77
2022/12/18 01:29:06;;;;;;;95.70;32.17;;;-3.20;99.90;;;;;;5061004;28;20127;-77
2022/12/18 01:31:33;;;;;;;91.15;30.75;;;-3.50;99.90;;;;;;5077546;28;20143;-77
2022/12/18 01:34:04;;;;;;;92.43;31.17;;;-3.70;99.90;;;;;;5097201;28;20078;-78
2022/12/18 01:36:32;;;;;;;;;;;-3.70;99.90;;;;;;5080808;28;20080;-77
2022/12/18 01:39:01;;;;;;;86.80;29.55;;;-3.60;99.90;;;;;;5065251;28;19930;-77
2022/12/18 01:44:56;;;;;;;88.18;31.10;;;-3.80;99.90;;;;;;5072725;28;20048;-78
2022/12/18 01:47:37;;;;;;;91.03;27.73;;;-3.90;99.90;;;;;;5051726;28;20055;-78
2022/12/18 01:50:27;;;;;;;80.50;28.40;;;-3.90;99.90;;;;;;5058811;28;20062;-78
2022/12/18 01:53:14;;;;;;;86.22;27.92;;;-3.90;99.90;;;;;;5057227;28;20071;-78
2022/12/18 01:55:48;;;;;;;86.30;27.70;;;-3.50;99.90;;;;;;5075857;28;20031;-78
2022/12/18 01:58:14;;;;;;;88.75;29.40;;;-4.00;99.90;;;;;;5060159;27;20039;-78
2022/12/18 02:00:40;;;;;;;87.25;29.25;;;-4.00;99.90;;;;;;5060030;28;20572;-78
2022/12/18 02:03:06;;;;;;;85.13;28.95;;;-4.00;99.90;;;;;;5073781;28;20043;-78
2022/12/18 02:05:55;;;;;;;87.47;28.63;;;-3.60;99.90;;;;;;5077275;28;20040;-78
2022/12/18 02:08:56;;;;;;;87.90;30.13;;;-4.00;99.90;;;;;;5073407;28;20055;-79
2022/12/18 02:11:46;;;;;;;68.32;22.35;;;-4.00;99.90;;;;;;5059219;28;20049;-78
2022/12/18 02:14:30;;;;;;;93.18;29.35;;;-4.10;99.90;;;;;;5084267;27;20610;-79
2022/12/18 02:17:09;;;;;;;90.68;28.88;;;-4.00;99.90;;;;;;5059989;28;20158;-78
2022/12/18 02:19:56;;;;;;;88.20;30.90;;;-4.00;99.90;;;;;;5094109;27;20040;-78
2022/12/18 02:22:37;;;;;;;80.18;27.30;;;-4.00;99.90;;;;;;5061276;28;20316;-79
2022/12/18 02:25:44;;;;;;;81.63;29.00;;;-3.90;99.90;;;;;;5081779;28;20043;-78
2022/12/18 02:28:15;;;;;;;86.35;28.38;;;-4.10;99.90;;;;;;5048015;27;20146;-77
2022/12/18 02:30:43;;;;;;;81.97;29.05;;;-4.10;99.90;;;;;;5101076;27;20130;-79
2022/12/18 02:33:11;;;;;;;75.35;26.63;;;-2.60;99.90;;;;;;5079355;28;20050;-78
2022/12/18 02:35:40;;;;;;;86.93;30.27;;;-4.20;99.90;;;;;;5083092;27;20039;-79
2022/12/18 02:38:06;;;;;;;86.10;27.85;;;-4.20;99.90;;;;;;5063245;28;20050;-79
2022/12/18 02:40:32;;;;;;;82.85;30.17;;;-4.20;99.90;;;;;;5093741;28;20059;-78
2022/12/18 02:43:10;;;;;;;87.13;30.88;;;-4.20;99.90;;;;;;5103332;27;20047;-79
2022/12/18 02:45:47;;;;;;;87.50;30.27;;;-4.30;99.90;;;;;;5098713;28;20044;-79
2022/12/18 02:48:13;;;;;;;100.50;31.25;;;-4.30;99.90;;;;;;5078913;28;20088;-79
2022/12/18 02:51:06;;;;;;;82.13;29.20;;;-4.30;99.90;;;;;;5065745;28;20043;-78
2022/12/18 02:53:53;;;;;;;85.57;28.65;;;-4.30;99.90;;;;;;5074908;28;20134;-78
2022/12/18 02:56:28;;;;;;;83.70;28.70;;;-3.90;99.90;;;;;;5082315;28;20127;-79
2022/12/18 02:58:54;;;;;;;81.38;28.13;;;-4.40;99.90;;;;;;5095198;28;20061;-79
2022/12/18 03:01:29;;;;;;;87.65;29.77;;;-4.40;99.90;;;;;;5077756;28;20052;-78
2022/12/18 03:04:01;;;;;;;85.93;29.80;;;-4.20;99.90;;;;;;5080863;28;20104;-79
2022/12/18 03:06:30;;;;;;;94.85;29.70;;;-3.40;99.90;;;;;;5061884;28;20051;-79
2022/12/18 03:09:09;;;;;;;90.93;30.70;;;-4.50;99.90;;;;;;5083311;28;20127;-79
2022/12/18 03:14:26;;;;;;;94.95;32.30;;;-4.50;99.90;;;;;;5075091;28;20059;-79
2022/12/18 03:16:57;;;;;;;94.30;31.95;;;-4.60;99.90;;;;;;5089568;28;20042;-79
2022/12/18 03:19:27;;;;;;;99.40;32.58;;;-4.60;99.90;;;;;;5074319;28;20044;-79
2022/12/18 03:21:57;;;;;;;93.03;31.17;;;-4.60;99.90;;;;;;5077210;28;20082;-79
2022/12/18 03:24:24;;;;;;;98.45;33.50;;;-4.60;99.90;;;;;;5094201;28;20048;-79
2022/12/18 03:26:58;;;;;;;106.07;33.25;;;-3.30;99.90;;;;;;5070725;28;20040;-79
2022/12/18 03:29:31;;;;;;;99.03;33.10;;;-4.60;99.90;;;;;;5061643;28;20829;-79
2022/12/18 03:32:09;;;;;;;111.00;32.97;;;-4.50;99.90;;;;;;5053600;28;20040;-79
2022/12/18 03:34:38;;;;;;;96.40;32.47;;;-4.60;99.90;;;;;;5096744;28;20039;-79
2022/12/18 03:37:06;;;;;;;101.53;33.15;;;-4.60;99.90;;;;;;5078217;28;20055;-78
2022/12/18 03:39:33;;;;;;;97.63;32.90;;;-4.60;99.90;;;;;;5071270;28;20119;-80
2022/12/18 03:42:17;;;;;;;90.00;32.08;;;-4.70;99.90;;;;;;5094945;28;20039;-80
2022/12/18 03:44:52;;;;;;;93.95;32.78;;;-4.70;99.90;;;;;;5070038;28;20097;-80
2022/12/18 03:48:00;;;;;;;94.22;32.40;;;-4.70;99.90;;;;;;5074314;28;20052;-80
2022/12/18 03:50:41;;;;;;;94.97;32.63;;;-4.70;99.90;;;;;;5085597;28;20421;-80
2022/12/18 03:53:25;;;;;;;89.55;31.05;;;-4.70;99.90;;;;;;5073166;28;20051;-79
2022/12/18 03:55:52;;;;;;;94.20;33.22;;;-4.40;99.90;;;;;;5078145;28;20045;-79
2022/12/18 03:58:23;;;;;;;91.72;33.17;;;-4.70;99.90;;;;;;5061449;27;20039;-79
2022/12/18 04:00:52;;;;;;;90.57;31.10;;;-4.30;99.90;;;;;;5072026;28;20039;-79
2022/12/18 04:03:19;;;;;;;82.55;30.33;;;-4.80;99.90;;;;;;5076122;28;20051;-80
2022/12/18 04:05:50;;;;;;;83.95;31.08;;;-4.80;99.90;;;;;;5059610;28;20044;-80
2022/12/18 04:08:16;;;;;;;89.00;30.15;;;-4.70;99.90;;;;;;5080591;28;20051;-80
2022/12/18 04:10:42;;;;;;;88.70;30.60;;;-4.80;99.90;;;;;;5057183;28;20053;-79
2022/12/18 04:13:09;;;;;;;92.97;31.20;;;-4.80;99.90;;;;;;5043131;28;20059;-79
2022/12/18 04:15:36;;;;;;;81.60;29.63;;;-4.80;99.90;;;;;;5058740;28;20185;-79
2022/12/18 04:18:02;;;;;;;83.13;30.58;;;-4.90;99.90;;;;;;5060347;28;20096;-79
2022/12/18 04:20:28;;;;;;;80.20;29.50;;;-4.90;99.90;;;;;;5060320;28;20052;-79
2022/12/18 04:22:53;;;;;;;78.63;28.55;;;-4.80;99.90;;;;;;5060605;28;20047;-79
2022/12/18 04:25:19;;;;;;;78.75;27.50;;;-4.90;99.90;;;;;;5061963;28;20047;-79
2022/12/18 04:27:45;;;;;;;74.55;28.20;;;-4.70;99.90;;;;;;5055625;28;20048;-79
2022/12/18 04:30:11;;;;;;;77.85;27.92;;;-4.90;99.90;;;;;;5065457;28;20118;-79
2022/12/18 04:32:37;;;;;;;82.57;28.80;;;-4.90;99.90;;;;;;5075214;28;20051;-80
2022/12/18 04:35:04;;;;;;;72.40;27.58;;;-4.90;99.90;;;;;;5076842;28;20036;-79
2022/12/18 04:37:30;;;;;;;77.18;28.27;;;-4.90;99.90;;;;;;5074448;28;20048;-79
2022/12/18 04:39:55;;;;;;;76.32;27.48;;;-4.90;99.90;;;;;;5078954;28;20094;-79
2022/12/18 04:42:21;;;;;;;73.50;28.00;;;-4.90;99.90;;;;;;5079359;28;20051;-80
2022/12/18 04:44:47;;;;;;;71.78;25.95;;;-3.90;99.90;;;;;;5047683;28;20055;-79
2022/12/18 04:47:13;;;;;;;72.03;27.45;;;-5.00;99.90;;;;;;5048299;28;20808;-79
2022/12/18 04:49:38;;;;;;;74.47;28.40;;;-4.80;99.90;;;;;;5064676;28;20054;-79
2022/12/18 04:52:07;;;;;;;72.70;27.85;;;-5.00;99.90;;;;;;5062126;28;20123;-79
2022/12/18 04:54:32;;;;;;;81.90;29.23;;;-5.00;99.90;;;;;;5076664;28;20682;-79
2022/12/18 04:56:58;;;;;;;70.28;26.73;;;-5.00;99.90;;;;;;5074585;28;20111;-79
2022/12/18 04:59:24;;;;;;;71.97;26.73;;;-5.00;99.90;;;;;;5038478;28;20456;-80
2022/12/18 05:01:50;;;;;;;69.82;25.98;;;-3.70;99.90;;;;;;5040317;28;20035;-79
2022/12/18 05:04:15;;;;;;;74.47;24.95;;;-4.50;99.90;;;;;;5061610;28;20044;-80
2022/12/18 05:06:41;;;;;;;76.13;27.52;;;-5.10;99.90;;;;;;5059307;28;20036;-79
2022/12/18 05:09:07;;;;;;;80.38;26.50;;;-5.10;99.90;;;;;;5038240;28;20570;-81
2022/12/18 05:11:36;;;;;;;80.90;26.58;;;-5.10;99.90;;;;;;5050269;28;20044;-80
2022/12/18 05:14:01;;;;;;;69.28;25.65;;;-5.20;99.90;;;;;;5082169;27;20150;-80
2022/12/18 05:16:27;;;;;;;77.82;28.83;;;-5.20;99.90;;;;;;5074327;28;20135;-80
2022/12/18 05:18:53;;;;;;;76.22;26.08;;;-5.20;99.90;;;;;;5096386;28;20032;-80
2022/12/18 05:21:19;;;;;;;72.28;26.02;;;-4.70;99.90;;;;;;5055920;28;20563;-80
2022/12/18 05:23:45;;;;;;;74.32;24.13;;;-5.20;99.90;;;;;;5072603;28;20461;-80
2022/12/18 05:26:15;;;;;;;70.13;25.10;;;-5.30;99.90;;;;;;5077018;28;20401;-79
2022/12/18 05:28:41;;;;;;;77.67;25.27;;;-5.20;99.90;;;;;;5066817;28;20046;-79
2022/12/18 05:31:07;;;;;;;78.15;27.13;;;-4.90;99.90;;;;;;5080096;28;20301;-79
2022/12/18 05:33:34;;;;;;;69.38;25.13;;;-5.30;99.90;;;;;;5080147;28;20108;-80
2022/12/18 05:36:06;;;;;;;69.05;24.15;;;-5.30;99.90;;;;;;5093802;28;20040;-79
2022/12/18 05:38:33;;;;;;;72.07;24.10;;;-5.30;99.90;;;;;;5095956;28;20595;-80
2022/12/18 05:40:59;;;;;;;75.90;27.30;;;-5.30;99.90;;;;;;5092080;28;20035;-79
2022/12/18 05:43:26;;;;;;;68.75;24.38;;;-5.30;99.90;;;;;;5060819;28;20031;-79
2022/12/18 05:45:53;;;;;;;67.05;24.67;;;-5.30;99.90;;;;;;5059195;28;20668;-79
2022/12/18 05:48:19;;;;;;;67.32;24.60;;;-5.40;99.90;;;;;;5076774;28;20514;-80
2022/12/18 05:50:47;;;;;;;77.35;24.83;;;-5.40;99.90;;;;;;5101273;28;20077;-80
2022/12/18 05:53:15;;;;;;;71.07;25.00;;;-5.40;99.90;;;;;;5077988;28;20079;-80
2022/12/18 05:55:41;;;;;;;67.28;23.83;;;-5.40;99.90;;;;;;5073636;28;20649;-79
2022/12/18 05:58:08;;;;;;;72.88;24.50;;;-5.50;99.90;;;;;;5079394;27;20036;-80
2022/12/18 06:00:39;;;;;;;71.78;22.52;;;-5.40;99.90;;;;;;5078048;28;20085;-80
2022/12/18 06:03:06;;;;;;;58.38;20.60;;;-5.40;99.90;;;;;;5080240;28;20092;-80
2022/12/18 06:05:50;;;;;;;68.18;23.35;;;-5.50;99.90;;;;;;5083013;28;20032;-80
2022/12/18 06:08:16;;;;;;;72.05;25.13;;;-5.50;99.90;;;;;;5080182;28;20623;-80
2022/12/18 06:10:42;;;;;;;67.03;23.20;;;-4.70;99.90;;;;;;5055743;28;20131;-79
2022/12/18 06:13:08;;;;;;;66.55;25.27;;;-5.50;99.90;;;;;;5054078;28;20052;-79
2022/12/18 06:15:37;;;;;;;68.68;24.20;;;-5.50;99.90;;;;;;5056039;28;20044;-80
2022/12/18 06:18:03;;;;;;;63.63;21.88;;;-5.50;99.90;;;;;;5061596;28;20052;-80
2022/12/18 06:20:28;;;;;;;64.85;23.20;;;-5.50;99.90;;;;;;5057154;28;20449;-80
2022/12/18 06:22:54;;;;;;;65.45;23.50;;;-5.60;99.90;;;;;;5075280;28;20043;-80
2022/12/18 06:25:20;;;;;;;64.20;24.00;;;-5.60;99.90;;;;;;5045846;28;20036;-80
2022/12/18 06:27:47;;;;;;;71.78;24.48;;;-4.60;99.90;;;;;;5043396;28;20039;-80
2022/12/18 06:30:15;;;;;;;70.03;23.23;;;-5.50;99.90;;;;;;5075915;28;20047;-80
2022/12/18 06:32:40;;;;;;;59.55;22.17;;;-5.60;99.90;;;;;;5054637;28;20075;-80
2022/12/18 06:35:08;;;;;;;69.07;25.67;;;-5.60;99.90;;;;;;5082230;28;20121;-81
2022/12/18 06:37:33;;;;;;;55.45;20.90;;;-5.60;99.90;;;;;;5060781;28;20122;-80
2022/12/18 06:40:00;;;;;;;63.50;22.55;;;-5.60;99.90;;;;;;5055714;28;20127;-81
2022/12/18 06:42:26;;;;;;;64.97;22.02;;;-4.30;99.90;;;;;;5078872;28;20539;-80
2022/12/18 06:44:52;;;;;;;67.50;23.65;;;-5.60;99.90;;;;;;5051685;28;20048;-80
2022/12/18 06:47:18;;;;;;;65.97;23.65;;;-5.60;99.90;;;;;;5074238;28;20037;-80
2022/12/18 06:49:44;;;;;;;67.25;21.88;;;-5.60;99.90;;;;;;5063920;28;20181;-80
2022/12/18 06:52:10;;;;;;;66.88;21.73;;;-4.70;99.90;;;;;;5038269;28;20720;-80
2022/12/18 06:54:36;;;;;;;59.47;21.77;;;-5.70;99.90;;;;;;5074381;28;20862;-80
2022/12/18 06:57:02;;;;;;;67.30;23.55;;;-5.70;99.90;;;;;;5038469;28;20505;-80
2022/12/18 06:59:27;;;;;;;63.85;23.45;;;-4.80;99.90;;;;;;5058560;28;20040;-81
2022/12/18 07:01:53;;;;;;;62.58;21.80;;;-5.70;99.90;;;;;;5037553;28;20444;-80
2022/12/18 07:04:19;;;;;;;64.78;21.90;;;-5.70;99.90;;;;;;5050803;28;20043;-80
2022/12/18 07:06:45;;;;;;;57.58;20.10;;;-5.70;99.90;;;;;;5072178;28;20647;-80
2022/12/18 07:09:11;;;;;;;63.03;23.13;;;-5.70;99.90;;;;;;5075415;28;20047;-80
2022/12/18 07:11:36;;;;;;;54.85;21.48;;;-5.80;99.90;;;;;;5070612;28;20370;-80
2022/12/18 07:14:02;;;;;;;61.15;21.50;;;-5.80;99.90;;;;;;5058825;28;20058;-81
2022/12/18 07:16:28;;;;;;;55.45;21.75;;;-5.80;99.90;;;;;;5080770;28;20040;-81
2022/12/18 07:18:57;;;;;;;59.30;20.23;;;-5.80;99.90;;;;;;5067602;28;20048;-80
2022/12/18 07:21:24;;;;;;;52.30;20.13;;;-5.80;99.90;;;;;;5073690;28;20565;-80
2022/12/18 07:23:49;;;;;;;51.45;19.70;;;-5.70;99.90;;;;;;5076025;28;20043;-80
2022/12/18 07:26:17;;;;;;;57.20;20.05;;;-5.70;99.90;;;;;;5076851;28;20070;-80
2022/12/18 07:28:43;;;;;;;52.40;18.75;;;-5.70;99.90;;;;;;5081747;28;20213;-80
2022/12/18 07:31:12;;;;;;;57.38;20.17;;;-5.70;99.90;;;;;;5065824;28;20043;-80
2022/12/18 07:33:38;;;;;;;55.22;19.48;;;-5.70;99.90;;;;;;5065218;28;20044;-80
2022/12/18 07:36:06;;;;;;;49.92;19.30;;;-5.70;99.90;;;;;;5088035;28;20051;-80
2022/12/18 07:38:33;;;;;;;50.20;19.80;;;-5.70;99.90;;;;;;5079106;28;20075;-80
2022/12/18 07:41:04;;;;;;;45.65;19.02;;;-5.30;99.90;;;;;;5076586;28;20052;-80
2022/12/18 07:43:30;;;;;;;38.90;15.90;;;-5.60;99.90;;;;;;5067812;28;20047;-81
2022/12/18 07:45:56;;;;;;;42.95;18.30;;;-5.60;99.90;;;;;;5081378;28;20153;-81
2022/12/18 07:48:21;;;;;;;44.15;17.92;;;-5.60;99.90;;;;;;5085774;27;20036;-81
2022/12/18 07:50:47;;;;;;;46.50;18.17;;;-5.50;99.90;;;;;;5099681;28;20105;-80
2022/12/18 07:53:14;;;;;;;44.13;17.92;;;-5.60;99.90;;;;;;5085028;28;20079;-80
2022/12/18 07:55:41;;;;;;;47.08;17.98;;;-5.50;99.90;;;;;;5100534;27;21066;-80
2022/12/18 07:58:07;;;;;;;46.17;17.65;;;-5.50;99.90;;;;;;5063728;28;20064;-80
2022/12/18 08:00:33;;;;;;;47.40;19.17;;;-4.40;99.90;;;;;;5104458;28;20093;-80
2022/12/18 08:02:59;;;;;;;46.28;18.38;;;-5.50;99.90;;;;;;5081746;28;20239;-81
2022/12/18 08:05:26;;;;;;;43.58;17.80;;;-5.50;99.90;;;;;;5079743;28;20579;-81
2022/12/18 08:07:52;;;;;;;43.80;19.08;;;-5.30;99.90;;;;;;5078996;28;20076;-81
2022/12/18 08:10:18;;;;;;;50.13;19.33;;;-5.40;99.90;;;;;;5077118;28;20047;-81
2022/12/18 08:12:44;;;;;;;44.22;17.83;;;-5.40;99.90;;;;;;5059301;28;20113;-81
2022/12/18 08:15:10;;;;;;;40.75;18.05;;;-4.10;99.90;;;;;;5074298;28;20059;-79
2022/12/18 08:17:36;;;;;;;38.88;17.55;;;-6.20;99.90;;;;;;5070292;28;20043;-79
2022/12/18 08:20:01;;;;;;;43.28;17.85;;;-5.30;99.90;;;;;;5072940;28;20028;-80
2022/12/18 08:22:27;;;;;;;38.03;17.58;;;-5.30;99.90;;;;;;5055713;28;20044;-80
2022/12/18 08:24:53;;;;;;;43.03;18.58;;;-5.30;99.90;;;;;;5071666;28;20053;-80
2022/12/18 08:27:19;;;;;;;41.08;17.90;;;-5.20;99.90;;;;;;5089794;28;20077;-80
2022/12/18 08:29:44;;;;;;;39.50;17.30;;;-5.20;99.90;;;;;;5074822;28;20055;-81
2022/12/18 08:32:10;;;;;;;36.90;15.77;;;-5.20;99.90;;;;;;5070423;28;20044;-81
2022/12/18 08:34:36;;;;;;;42.10;17.35;;;-5.20;99.90;;;;;;5088535;28;20047;-80
2022/12/18 08:37:02;;;;;;;33.85;16.35;;;-5.10;99.90;;;;;;5087090;28;20047;-80
2022/12/18 08:39:28;;;;;;;43.70;18.23;;;-5.10;99.90;;;;;;5058866;28;20097;-82
2022/12/18 08:44:38;;;;;;;37.22;16.90;;;-5.10;99.90;;;;;;5068924;28;20075;-79
2022/12/18 08:47:07;;;;;;;37.33;18.10;;;-5.00;99.90;;;;;;5064455;28;20044;-80
2022/12/18 08:49:33;;;;;;;40.13;17.08;;;-4.00;99.90;;;;;;5076037;28;20109;-81
2022/12/18 08:51:59;;;;;;;39.63;17.15;;;-5.00;99.90;;;;;;5073486;28;20039;-81
2022/12/18 08:54:26;;;;;;;37.58;17.48;;;-4.90;99.90;;;;;;5069228;28;20035;-79
2022/12/18 08:56:52;;;;;;;39.22;17.20;;;-4.90;99.90;;;;;;5046283;28;20138;-79
2022/12/18 08:59:19;;;;;;;38.42;17.17;;;-4.80;99.90;;;;;;5063010;28;20039;-80
2022/12/18 09:01:46;;;;;;;32.63;15.05;;;-4.30;99.90;;;;;;5049718;28;20047;-79
2022/12/18 09:04:13;;;;;;;34.90;16.85;;;-4.80;99.90;;;;;;5066860;28;20040;-79
2022/12/18 09:06:40;;;;;;;36.70;15.55;;;-4.70;99.90;;;;;;5046141;28;20080;-79
2022/12/18 09:09:10;;;;;;;35.60;16.50;;;-4.70;99.90;;;;;;5061333;28;20066;-80
2022/12/18 09:11:37;;;;;;;39.90;16.88;;;-4.70;99.90;;;;;;5083739;28;20093;-79
2022/12/18 09:14:04;;;;;;;33.40;15.35;;;-4.60;99.90;;;;;;5081540;27;20067;-80
2022/12/18 09:16:31;;;;;;;31.55;15.35;;;-4.10;99.90;;;;;;5055905;28;20472;-79
2022/12/18 09:19:01;;;;;;;35.70;15.63;;;-4.50;99.90;;;;;;5053310;28;20052;-79
2022/12/18 09:21:33;;;;;;;31.52;14.82;;;-4.50;99.90;;;;;;5074405;28;20043;-79
2022/12/18 09:23:58;;;;;;;37.85;16.33;;;-4.40;99.90;;;;;;5089569;28;20038;-79
2022/12/18 09:26:25;;;;;;;35.92;16.25;;;-3.60;99.90;;;;;;5074493;28;20035;-79
2022/12/18 09:28:52;;;;;;;34.83;16.17;;;-4.40;99.90;;;;;;5093011;28;20048;-79
2022/12/18 09:31:20;;;;;;;31.55;14.45;;;-4.30;99.90;;;;;;5078954;28;20089;-79
2022/12/18 09:33:46;;;;;;;31.65;14.95;;;-4.30;99.90;;;;;;5098649;28;20048;-79
2022/12/18 09:36:15;;;;;;;30.45;15.07;;;-3.40;99.90;;;;;;5096296;28;20050;-79
2022/12/18 09:38:41;;;;;;;32.05;15.00;;;-4.20;99.90;;;;;;5077113;28;20035;-79
2022/12/18 09:41:47;;;;;;;31.42;14.35;;;-4.10;99.90;;;;;;5097168;28;20886;-78
2022/12/18 09:44:35;;;;;;;31.38;15.20;;;-4.10;99.90;;;;;;5063118;28;20047;-78
2022/12/18 09:47:23;;;;;;;34.03;15.60;;;-4.10;99.90;;;;;;5062196;28;20138;-78
2022/12/18 09:50:00;;;;;;;31.08;15.02;;;-4.00;99.90;;;;;;5055731;28;20051;-78
2022/12/18 09:52:41;;;;;;;31.35;15.75;;;-4.00;99.90;;;;;;5085229;28;20122;-79
2022/12/18 09:55:21;;;;;;;24.33;11.43;;;-4.00;99.90;;;;;;5071472;28;20047;-78
2022/12/18 09:58:11;;;;;;;36.63;15.55;;;-4.00;99.90;;;;;;5088314;28;20055;-79
2022/12/18 10:00:37;;;;;;;31.70;15.55;;;-2.50;99.90;;;;;;5074439;28;20174;-77
2022/12/18 10:03:10;;;;;;;37.80;15.30;;;-4.00;99.90;;;;;;5057869;28;20076;-78
2022/12/18 10:06:03;;;;;;;31.13;14.82;;;-4.20;99.90;;;;;;5073549;28;20505;-78
2022/12/18 10:08:58;;;;;;;30.60;15.18;;;-4.00;99.90;;;;;;5088162;28;20078;-78
2022/12/18 10:11:38;;;;;;;32.22;14.75;;;-4.00;99.90;;;;;;5053429;28;20056;-78
2022/12/18 10:14:22;;;;;;;31.70;14.43;;;-3.60;99.90;;;;;;5071826;27;20100;-78
2022/12/18 10:17:02;;;;;;;33.00;15.80;;;-3.90;99.90;;;;;;5057592;28;20040;-78
2022/12/18 10:19:37;;;;;;;31.13;13.88;;;-4.00;99.90;;;;;;5075244;28;20444;-78
2022/12/18 10:22:09;;;;;;;32.85;14.48;;;-3.90;99.90;;;;;;5078663;28;20047;-78
2022/12/18 10:25:05;;;;;;;30.58;14.95;;;-3.90;99.90;;;;;;5063931;28;20086;-78
2022/12/18 10:27:31;;;;;;;32.47;14.00;;;-3.90;99.90;;;;;;5021974;28;20062;-78
2022/12/18 10:29:58;;;;;;;30.35;14.05;;;-3.90;99.90;;;;;;5053357;28;20056;-78
2022/12/18 10:32:30;;;;;;;30.98;13.75;;;-3.90;99.90;;;;;;5056623;28;20123;-78
2022/12/18 10:34:58;;;;;;;25.67;13.73;;;-3.90;99.90;;;;;;5075404;28;20211;-79
2022/12/18 10:37:27;;;;;;;24.83;13.20;;;-3.90;99.90;;;;;;5056126;28;20509;-77
2022/12/18 10:40:14;;;;;;;27.85;13.15;;;-3.90;99.90;;;;;;5071472;28;20051;-78
2022/12/18 10:42:41;;;;;;;26.08;13.60;;;-3.90;99.90;;;;;;5058746;28;20059;-78
2022/12/18 10:45:12;;;;;;;29.40;12.80;;;-3.90;99.90;;;;;;5071372;28;20127;-78
2022/12/18 10:47:49;;;;;;;24.23;11.48;;;-3.90;99.90;;;;;;5090688;28;20046;-76
2022/12/18 10:50:35;;;;;;;28.85;12.10;;;-3.80;99.90;;;;;;5055928;28;20052;-77
2022/12/18 10:53:04;;;;;;;27.65;11.75;;;-3.80;99.90;;;;;;5074281;28;20548;-78
2022/12/18 10:55:36;;;;;;;24.55;12.25;;;-3.80;99.90;;;;;;5084481;28;20040;-78
2022/12/18 10:58:21;;;;;;;23.77;11.52;;;-3.80;99.90;;;;;;5080808;27;20039;-78
2022/12/18 11:01:01;;;;;;;22.33;10.95;;;-3.70;99.90;;;;;;5083149;28;20056;-77
2022/12/18 11:03:29;;;;;;;22.65;11.20;;;-3.70;99.90;;;;;;5077181;28;20036;-77
2022/12/18 11:06:17;;;;;;;22.65;10.90;;;-3.70;99.90;;;;;;5077763;28;20146;-77
2022/12/18 11:08:58;;;;;;;25.38;11.75;;;-3.70;99.90;;;;;;5079457;28;20032;-77
2022/12/18 11:11:24;;;;;;;21.35;10.93;;;-3.30;99.90;;;;;;5067635;28;20051;-77
2022/12/18 11:14:34;;;;;;;27.85;12.48;;;-3.60;99.90;;;;;;5075743;28;20769;-77
2022/12/18 11:17:00;;;;;;;25.92;11.63;;;-3.60;99.90;;;;;;5038706;28;20052;-77
2022/12/18 11:19:39;;;;;;;26.33;12.32;;;-3.60;99.90;;;;;;5056618;28;20054;-77
2022/12/18 11:22:27;;;;;;;26.50;12.18;;;-3.60;99.90;;;;;;5095221;28;20130;-77
2022/12/18 11:25:19;;;;;;;22.67;10.27;;;-3.50;99.90;;;;;;5075618;28;20424;-77
2022/12/18 11:27:51;;;;;;;26.52;12.27;;;-3.40;99.90;;;;;;5075303;28;20043;-78
2022/12/18 11:30:21;;;;;;;24.15;10.70;;;-3.50;99.90;;;;;;5055897;28;20702;-77
2022/12/18 11:32:50;;;;;;;30.92;12.88;;;-3.40;99.90;;;;;;5070923;28;20463;-77
2022/12/18 11:35:32;;;;;;;24.48;11.25;;;-3.40;99.90;;;;;;5073174;28;20051;-77
2022/12/18 11:38:17;;;;;;;21.17;10.35;;;-3.40;99.90;;;;;;5097069;28;20719;-77
2022/12/18 11:40:47;;;;;;;21.17;10.23;;;-3.30;99.90;;;;;;5076528;28;20051;-78
2022/12/18 11:43:28;;;;;;;22.27;10.68;;;-3.30;99.90;;;;;;5075401;28;20396;-77
2022/12/18 11:46:05;;;;;;;21.35;11.00;;;-3.30;99.90;;;;;;5101198;28;20047;-77
2022/12/18 11:48:52;;;;;;;21.70;11.02;;;-3.30;99.90;;;;;;5070067;28;20508;-77
2022/12/18 11:51:34;;;;;;;21.77;9.75;;;-2.90;99.90;;;;;;5070010;28;20044;-78
2022/12/18 11:54:07;;;;;;;21.30;9.82;;;-3.20;99.90;;;;;;5056042;28;20068;-77
2022/12/18 11:56:39;;;;;;;19.40;10.27;;;-3.20;99.90;;;;;;5073360;28;20130;-78
2022/12/18 11:59:25;;;;;;;17.98;9.15;;;-3.10;99.90;;;;;;5075692;28;20044;-77
2022/12/18 12:02:28;;;;;;;17.42;8.43;;;-3.10;99.90;;;;;;5067785;28;20127;-77
2022/12/18 12:04:59;;;;;;;18.42;8.50;;;-3.10;99.90;;;;;;5038272;28;20358;-77
2022/12/18 12:07:25;;;;;;;;;;;-3.00;99.90;;;;;;5097009;28;20923;-77
2022/12/18 12:10:04;;;;;;;20.80;7.75;;;-2.70;99.90;;;;;;5071693;28;20026;-77
2022/12/18 12:12:55;;;;;;;15.63;8.00;;;-3.00;99.90;;;;;;5049994;28;20048;-77
2022/12/18 12:15:52;;;;;;;18.63;8.13;;;-3.00;99.90;;;;;;5081516;28;20074;-78
2022/12/18 12:18:39;;;;;;;16.50;8.30;;;-2.90;99.90;;;;;;5100954;28;20175;-77
2022/12/18 12:21:52;;;;;;;14.48;6.95;;;-2.90;99.90;;;;;;5080878;28;20067;-78
2022/12/18 12:24:37;;;;;;;15.18;7.68;;;-2.70;99.90;;;;;;4987999;28;20216;-77
2022/12/18 12:27:16;;;;;;;13.32;6.68;;;-2.80;99.90;;;;;;5005153;28;20053;-79
2022/12/18 12:30:07;;;;;;;13.75;7.00;;;-2.50;99.90;;;;;;5037948;28;20086;-77
2022/12/18 12:32:51;;;;;;;17.08;7.25;;;-2.80;99.90;;;;;;5051753;28;20039;-79
2022/12/18 12:35:39;;;;;;;16.27;7.53;;;-2.70;99.90;;;;;;5089938;28;20524;-77
2022/12/18 12:38:13;;;;;;;19.00;7.30;;;-2.70;99.90;;;;;;5057965;28;20143;-77
2022/12/18 12:40:57;;;;;;;11.95;6.28;;;-2.70;99.90;;;;;;5072928;28;20044;-77
2022/12/18 12:43:46;;;;;;;15.48;6.97;;;-2.60;99.90;;;;;;5089214;28;20032;-78
2022/12/18 12:46:17;;;;;;;15.98;6.82;;;-1.60;99.90;;;;;;5078973;28;20052;-76
2022/12/18 12:49:09;;;;;;;12.77;6.28;;;-2.60;99.90;;;;;;5077113;28;20118;-77
2022/12/18 12:51:42;;;;;;;12.65;6.28;;;-2.50;99.90;;;;;;5091576;28;20080;-77
2022/12/18 12:54:21;;;;;;;14.00;7.03;;;-2.50;99.90;;;;;;5061733;27;20079;-77
2022/12/18 12:57:09;;;;;;;17.33;6.97;;;-2.40;99.90;;;;;;5063298;28;20528;-77
2022/12/18 12:59:46;;;;;;;14.77;6.78;;;-2.40;99.90;;;;;;5065835;28;20062;-78
2022/12/18 13:02:20;;;;;;;13.23;6.22;;;-2.40;99.90;;;;;;5064412;28;20048;-76